Time;durP1;ratioP1;P1;durP2;ratioP2;P2;SDS_P1;SDS_P2;PMS_P1;PMS_P2;Temp;Humidity;BMP_temperature;BMP_pressure;BME280_temperature;BME280_humidity;BME280_pressure;Samples;Min_cycle;Max_cycle;Signal;HPM_P1;HPM_P2
2021/09/29 00:00:47;;;;;;;10.30;8.07;;;13.30;99.90;;;;;;4845587;29;20211;-90
2021/09/29 00:03:13;;;;;;;9.40;8.50;;;13.30;99.90;;;;;;4844385;29;20456;-91
2021/09/29 00:05:39;;;;;;;9.03;8.13;;;13.40;99.90;;;;;;4846417;29;20194;-90
2021/09/29 00:08:07;;;;;;;8.87;7.60;;;13.30;99.90;;;;;;4834336;29;20654;-90
2021/09/29 00:10:33;;;;;;;13.53;8.37;;;13.30;99.90;;;;;;4829532;29;20454;-90
2021/09/29 00:12:58;;;;;;;10.33;8.43;;;13.20;99.90;;;;;;4827399;29;20460;-90
2021/09/29 00:15:24;;;;;;;9.93;9.00;;;13.20;99.90;;;;;;4833125;29;20225;-90
2021/09/29 00:17:49;;;;;;;10.13;8.97;;;13.30;99.90;;;;;;4849556;29;20235;-90
2021/09/29 00:20:16;;;;;;;8.80;8.00;;;13.30;99.90;;;;;;4843227;29;20198;-90
2021/09/29 00:22:43;;;;;;;9.60;8.70;;;13.30;99.90;;;;;;4834321;29;20308;-90
2021/09/29 00:25:11;;;;;;;9.67;8.70;;;13.30;99.90;;;;;;4847142;29;20906;-90
2021/09/29 00:27:36;;;;;;;8.90;8.10;;;13.40;99.90;;;;;;4847264;29;20459;-90
2021/09/29 00:30:07;;;;;;;9.60;8.30;;;13.50;99.90;;;;;;4844804;29;20836;-90
2021/09/29 00:32:34;;;;;;;9.80;8.70;;;13.40;99.90;;;;;;4832162;29;20195;-90
2021/09/29 00:35:02;;;;;;;9.33;8.53;;;13.40;99.90;;;;;;4831541;29;20580;-90
2021/09/29 00:37:28;;;;;;;9.60;8.60;;;13.40;99.90;;;;;;4831798;29;20605;-90
2021/09/29 00:39:54;;;;;;;10.10;8.83;;;13.30;99.90;;;;;;4833684;29;20455;-90
2021/09/29 00:42:20;;;;;;;10.50;8.70;;;13.40;99.90;;;;;;4831870;29;20942;-91
2021/09/29 00:44:46;;;;;;;9.17;8.27;;;13.40;99.90;;;;;;4847871;29;20478;-90
2021/09/29 00:47:12;;;;;;;8.57;7.83;;;13.40;99.90;;;;;;4832217;29;20234;-90
2021/09/29 00:49:38;;;;;;;10.00;8.57;;;13.40;99.90;;;;;;4830411;29;20214;-90
2021/09/29 00:52:05;;;;;;;8.50;7.50;;;13.40;99.90;;;;;;4832607;29;20914;-90
2021/09/29 00:54:31;;;;;;;9.47;8.47;;;13.40;99.90;;;;;;4827868;29;20813;-89
2021/09/29 00:56:57;;;;;;;9.87;8.87;;;13.30;99.90;;;;;;4846482;29;20842;-90
2021/09/29 00:59:23;;;;;;;9.53;8.40;;;13.40;99.90;;;;;;4830744;29;21036;-90
2021/09/29 01:01:51;;;;;;;9.40;8.50;;;13.30;99.90;;;;;;4845969;29;20458;-90
2021/09/29 01:04:18;;;;;;;10.10;8.70;;;13.30;99.90;;;;;;4846061;29;20547;-91
2021/09/29 01:07:03;;;;;;;9.37;8.47;;;13.30;99.90;;;;;;4830251;29;20491;-90
2021/09/29 01:09:41;;;;;;;10.00;8.53;;;13.30;99.90;;;;;;4843240;29;20495;-90
2021/09/29 01:12:13;;;;;;;9.37;8.47;;;13.30;99.90;;;;;;4831753;29;20846;-90
2021/09/29 01:15:07;;;;;;;9.77;8.77;;;13.30;99.90;;;;;;4846143;29;21068;-90
2021/09/29 01:17:38;;;;;;;9.33;8.43;;;13.20;99.90;;;;;;4834594;29;20807;-90
2021/09/29 01:20:12;;;;;;;9.73;8.70;;;13.10;99.90;;;;;;4846925;29;20834;-90
2021/09/29 01:23:01;;;;;;;8.97;8.07;;;13.20;99.90;;;;;;4847988;29;20462;-90
2021/09/29 01:25:48;;;;;;;8.57;7.67;;;13.20;99.90;;;;;;4831884;29;20516;-90
2021/09/29 01:28:18;;;;;;;9.23;8.33;;;13.20;99.90;;;;;;4831143;29;20510;-91
2021/09/29 01:30:45;;;;;;;8.60;7.80;;;13.20;99.90;;;;;;4829779;29;20447;-90
2021/09/29 01:33:11;;;;;;;10.53;8.40;;;13.20;99.90;;;;;;4831285;29;20819;-90
2021/09/29 01:35:37;;;;;;;9.07;8.23;;;13.20;99.90;;;;;;4831727;29;20497;-90
2021/09/29 01:38:05;;;;;;;10.73;8.30;;;13.20;99.90;;;;;;4832561;29;20455;-90
2021/09/29 01:40:30;;;;;;;8.80;8.00;;;13.20;99.90;;;;;;4833180;29;20278;-90
2021/09/29 01:42:57;;;;;;;9.17;8.27;;;13.20;99.90;;;;;;4829842;29;20542;-90
2021/09/29 01:45:22;;;;;;;8.43;7.53;;;13.10;99.90;;;;;;4827940;29;20218;-90
2021/09/29 01:47:48;;;;;;;11.27;8.90;;;13.10;99.90;;;;;;4849241;29;20456;-90
2021/09/29 01:50:25;;;;;;;8.87;7.97;;;13.10;99.90;;;;;;4846712;29;20645;-90
2021/09/29 01:52:51;;;;;;;9.07;8.23;;;13.00;99.90;;;;;;4836924;29;20455;-90
2021/09/29 01:55:18;;;;;;;7.93;7.23;;;12.90;99.90;;;;;;4848801;29;20540;-90
2021/09/29 01:57:47;;;;;;;8.97;8.00;;;12.90;99.90;;;;;;4834236;29;20197;-90
2021/09/29 02:00:15;;;;;;;9.27;8.20;;;13.00;99.90;;;;;;4849897;29;20431;-90
2021/09/29 02:02:43;;;;;;;9.30;8.27;;;12.90;99.90;;;;;;4838114;29;20619;-90
2021/09/29 02:05:10;;;;;;;11.47;8.40;;;13.00;99.90;;;;;;4835772;29;20797;-90
2021/09/29 02:07:36;;;;;;;10.00;8.07;;;13.00;99.90;;;;;;4839417;29;20443;-89
2021/09/29 02:10:03;;;;;;;8.30;7.47;;;13.00;99.90;;;;;;4836423;29;20478;-90
2021/09/29 02:12:30;;;;;;;9.87;8.23;;;13.00;99.90;;;;;;4848570;29;20452;-90
2021/09/29 02:14:56;;;;;;;9.23;8.23;;;13.00;99.90;;;;;;4833408;29;20721;-90
2021/09/29 02:17:22;;;;;;;8.87;8.03;;;13.00;99.90;;;;;;4832422;29;20450;-90
2021/09/29 02:19:47;;;;;;;9.23;8.33;;;13.10;99.90;;;;;;4851043;29;20450;-90
2021/09/29 02:22:17;;;;;;;9.80;8.80;;;13.10;99.90;;;;;;4837051;29;20346;-90
2021/09/29 02:24:44;;;;;;;9.53;8.00;;;13.00;99.90;;;;;;4835410;29;20217;-90
2021/09/29 02:27:10;;;;;;;10.27;8.87;;;13.00;99.90;;;;;;4831231;29;20814;-90
2021/09/29 02:29:35;;;;;;;9.03;8.10;;;12.90;99.90;;;;;;4847288;29;20454;-90
2021/09/29 02:32:01;;;;;;;9.63;8.63;;;12.80;99.90;;;;;;4849029;29;20456;-90
2021/09/29 02:34:27;;;;;;;9.97;9.07;;;12.80;99.90;;;;;;4847754;29;20785;-90
2021/09/29 02:36:52;;;;;;;9.70;8.37;;;12.70;99.90;;;;;;4835028;29;20214;-90
2021/09/29 02:39:18;;;;;;;9.90;9.00;;;12.70;99.90;;;;;;4849063;29;20194;-90
2021/09/29 02:41:44;;;;;;;9.70;8.60;;;12.70;99.90;;;;;;4851348;29;20665;-90
2021/09/29 02:44:11;;;;;;;10.37;9.33;;;12.70;99.90;;;;;;4834579;29;20183;-91
2021/09/29 02:46:41;;;;;;;9.20;8.10;;;12.80;99.90;;;;;;4831471;29;20206;-90
2021/09/29 02:49:08;;;;;;;10.47;9.27;;;12.70;99.90;;;;;;4848382;29;20900;-90
2021/09/29 02:51:34;;;;;;;9.63;8.70;;;12.70;99.90;;;;;;4851591;29;20440;-90
2021/09/29 02:54:00;;;;;;;10.43;9.43;;;12.60;99.90;;;;;;4846372;29;20543;-90
2021/09/29 02:56:25;;;;;;;11.77;9.03;;;12.50;99.90;;;;;;4849917;29;20610;-90
2021/09/29 02:58:56;;;;;;;9.97;8.63;;;12.50;99.90;;;;;;4833780;29;20773;-90
2021/09/29 03:01:23;;;;;;;10.43;9.07;;;12.40;99.90;;;;;;4850106;29;20932;-90
2021/09/29 03:03:48;;;;;;;10.83;9.27;;;12.30;99.90;;;;;;4845388;29;20483;-91
2021/09/29 03:06:14;;;;;;;10.07;9.13;;;12.20;99.90;;;;;;4846561;29;20452;-90
2021/09/29 03:08:40;;;;;;;10.20;9.20;;;12.20;99.90;;;;;;4835706;29;20560;-90
2021/09/29 03:11:06;;;;;;;10.83;9.77;;;12.30;99.90;;;;;;4837573;29;20227;-89
2021/09/29 03:13:31;;;;;;;10.20;8.50;;;12.30;99.90;;;;;;4849860;29;20255;-89
2021/09/29 03:15:57;;;;;;;11.10;9.13;;;12.40;99.90;;;;;;4848912;29;20305;-91
2021/09/29 03:18:23;;;;;;;9.77;8.73;;;12.20;99.90;;;;;;4834989;29;20194;-90
2021/09/29 03:20:48;;;;;;;10.80;9.77;;;12.20;99.90;;;;;;4848031;29;20220;-90
2021/09/29 03:23:14;;;;;;;9.63;8.60;;;12.20;99.90;;;;;;4832332;29;21335;-90
2021/09/29 03:25:40;;;;;;;9.63;8.60;;;12.20;99.90;;;;;;4848072;29;20668;-90
2021/09/29 03:28:06;;;;;;;9.33;8.37;;;12.30;99.90;;;;;;4841372;29;20209;-90
2021/09/29 03:30:32;;;;;;;9.77;8.67;;;12.20;99.90;;;;;;4847880;29;20198;-90
2021/09/29 03:32:58;;;;;;;10.00;8.23;;;12.20;99.90;;;;;;4835571;29;20466;-90
2021/09/29 03:35:27;;;;;;;10.53;7.97;;;12.20;99.90;;;;;;4849440;29;20491;-90
2021/09/29 03:37:52;;;;;;;9.80;8.60;;;12.10;99.90;;;;;;4833674;29;20199;-91
2021/09/29 03:40:19;;;;;;;9.43;8.03;;;12.10;99.90;;;;;;4850983;29;20455;-90
2021/09/29 03:42:45;;;;;;;9.47;8.50;;;12.00;99.90;;;;;;4834957;29;20649;-90
2021/09/29 03:45:12;;;;;;;9.90;8.80;;;11.90;99.90;;;;;;4832082;29;20527;-90
2021/09/29 03:47:42;;;;;;;10.50;9.40;;;11.80;99.90;;;;;;4850134;29;20439;-90
2021/09/29 03:50:08;;;;;;;10.20;8.97;;;11.90;99.90;;;;;;4833047;29;20466;-90
2021/09/29 03:52:34;;;;;;;9.83;8.93;;;12.00;99.90;;;;;;4849480;29;20458;-90
2021/09/29 03:55:00;;;;;;;10.83;8.57;;;12.00;99.90;;;;;;4831881;29;20504;-90
2021/09/29 03:57:25;;;;;;;10.50;8.30;;;12.10;99.90;;;;;;4829940;29;20436;-90
2021/09/29 03:59:51;;;;;;;8.90;8.00;;;12.10;99.90;;;;;;4833470;29;20594;-90
2021/09/29 04:02:17;;;;;;;9.20;8.30;;;12.00;99.90;;;;;;4846199;29;20729;-90
2021/09/29 04:04:42;;;;;;;9.50;8.60;;;12.10;99.90;;;;;;4835412;29;20183;-90
2021/09/29 04:07:08;;;;;;;10.00;8.50;;;12.00;99.90;;;;;;4849454;29;20613;-91
2021/09/29 04:09:34;;;;;;;10.00;9.00;;;11.90;99.90;;;;;;4833420;29;20281;-90
2021/09/29 04:11:59;;;;;;;9.33;8.37;;;12.00;99.90;;;;;;4833822;29;20239;-90
2021/09/29 04:14:25;;;;;;;9.57;8.40;;;11.90;99.90;;;;;;4833868;29;20214;-89
2021/09/29 04:16:51;;;;;;;10.00;8.60;;;11.80;99.90;;;;;;4833366;29;20252;-89
2021/09/29 04:19:17;;;;;;;10.83;9.73;;;11.80;99.90;;;;;;4847073;29;20187;-90
2021/09/29 04:21:42;;;;;;;10.50;8.73;;;11.80;99.90;;;;;;4850841;29;20210;-89
2021/09/29 04:24:12;;;;;;;11.17;9.23;;;11.80;99.90;;;;;;4847754;29;20194;-90
2021/09/29 04:26:38;;;;;;;11.07;9.07;;;11.80;99.90;;;;;;4845560;29;20665;-90
2021/09/29 04:29:04;;;;;;;10.40;8.93;;;11.80;99.90;;;;;;4831174;29;20542;-90
2021/09/29 04:31:30;;;;;;;11.37;9.20;;;11.90;99.90;;;;;;4844409;29;20625;-90
2021/09/29 04:33:56;;;;;;;11.40;8.33;;;11.90;99.90;;;;;;4850206;29;20206;-90
2021/09/29 04:36:21;;;;;;;9.03;8.10;;;11.90;99.90;;;;;;4830611;29;20997;-90
2021/09/29 04:38:47;;;;;;;17.00;9.40;;;11.90;99.90;;;;;;4831624;29;20282;-90
2021/09/29 04:41:13;;;;;;;10.60;9.50;;;11.80;99.90;;;;;;4848711;29;20238;-90
2021/09/29 04:43:38;;;;;;;10.43;8.77;;;11.90;99.90;;;;;;4831731;29;20190;-89
2021/09/29 04:46:04;;;;;;;9.53;8.53;;;12.00;99.90;;;;;;4850620;29;20246;-90
2021/09/29 04:48:30;;;;;;;10.97;8.60;;;12.00;99.90;;;;;;4833870;29;20187;-90
2021/09/29 04:50:55;;;;;;;9.60;8.17;;;12.00;99.90;;;;;;4849397;29;20197;-90
2021/09/29 04:53:21;;;;;;;11.03;9.70;;;11.90;99.90;;;;;;4834728;29;20641;-91
2021/09/29 04:55:47;;;;;;;11.60;8.57;;;11.80;99.90;;;;;;4831552;29;20226;-90
2021/09/29 04:58:12;;;;;;;9.90;8.90;;;11.80;99.90;;;;;;4834206;29;20190;-90
2021/09/29 05:00:38;;;;;;;10.47;9.17;;;11.80;99.90;;;;;;4843296;29;20207;-90
2021/09/29 05:03:06;;;;;;;9.97;8.30;;;11.80;99.90;;;;;;4848986;29;20194;-89
2021/09/29 05:05:34;;;;;;;10.73;8.60;;;11.70;99.90;;;;;;4847703;29;20515;-91
2021/09/29 05:08:01;;;;;;;14.30;10.30;;;11.70;99.90;;;;;;4834718;29;20534;-91
2021/09/29 05:10:52;;;;;;;9.60;8.37;;;11.70;99.90;;;;;;4848347;29;20463;-89
2021/09/29 05:13:24;;;;;;;10.50;9.40;;;11.70;99.90;;;;;;4833263;29;20476;-89
2021/09/29 05:15:50;;;;;;;10.90;8.40;;;11.60;99.90;;;;;;4847159;29;21174;-90
2021/09/29 05:18:16;;;;;;;9.73;8.83;;;11.70;99.90;;;;;;4830254;29;20451;-89
2021/09/29 05:20:41;;;;;;;12.27;8.97;;;11.80;99.90;;;;;;4851297;29;20198;-89
2021/09/29 05:23:07;;;;;;;12.70;9.53;;;11.70;99.90;;;;;;4845758;29;20201;-88
2021/09/29 05:25:33;;;;;;;10.60;8.80;;;11.70;99.90;;;;;;4844842;29;20245;-89
2021/09/29 05:28:00;;;;;;;9.63;8.70;;;11.70;99.90;;;;;;4830371;29;20644;-91
2021/09/29 05:30:26;;;;;;;10.50;9.40;;;11.60;99.90;;;;;;4831221;29;20281;-89
2021/09/29 05:32:52;;;;;;;9.63;8.73;;;11.60;99.90;;;;;;4833453;29;20871;-90
2021/09/29 05:35:18;;;;;;;10.17;7.07;;;11.60;99.90;;;;;;4849688;29;20214;-89
2021/09/29 05:37:43;;;;;;;9.20;8.30;;;11.60;99.90;;;;;;4833263;29;20186;-90
2021/09/29 05:40:10;;;;;;;9.40;8.50;;;11.60;99.90;;;;;;4846164;29;20281;-90
2021/09/29 05:42:35;;;;;;;9.63;7.90;;;11.60;99.90;;;;;;4845701;29;20632;-90
2021/09/29 05:45:01;;;;;;;11.00;8.40;;;11.60;99.90;;;;;;4847494;29;20455;-90
2021/09/29 05:47:27;;;;;;;10.07;7.77;;;11.60;99.90;;;;;;4847710;29;20937;-90
2021/09/29 05:49:52;;;;;;;8.10;7.30;;;11.70;99.90;;;;;;4833588;29;20198;-90
2021/09/29 05:52:18;;;;;;;10.93;7.83;;;11.70;99.90;;;;;;4829483;29;20190;-89
2021/09/29 05:54:43;;;;;;;10.23;8.40;;;11.80;99.90;;;;;;4848463;29;20206;-90
2021/09/29 05:57:09;;;;;;;8.83;7.93;;;11.80;99.90;;;;;;4846025;29;20288;-89
2021/09/29 05:59:35;;;;;;;12.30;7.97;;;11.90;99.90;;;;;;4842619;29;20210;-90
2021/09/29 06:02:00;;;;;;;9.27;7.50;;;11.90;99.90;;;;;;4847421;29;20198;-90
2021/09/29 06:04:26;;;;;;;10.00;8.37;;;11.90;99.90;;;;;;4844407;29;20890;-89
2021/09/29 06:06:52;;;;;;;11.00;8.03;;;12.00;99.90;;;;;;4843407;29;20206;-89
2021/09/29 06:09:19;;;;;;;7.97;7.17;;;12.00;99.90;;;;;;4845526;29;20270;-90
2021/09/29 06:11:44;;;;;;;8.50;7.37;;;12.10;99.90;;;;;;4844336;29;20209;-89
2021/09/29 06:14:10;;;;;;;11.10;7.40;;;12.20;99.90;;;;;;4844832;29;20659;-90
2021/09/29 06:16:43;;;;;;;8.23;7.43;;;12.20;99.90;;;;;;4834786;29;20231;-90
2021/09/29 06:19:10;;;;;;;7.73;7.00;;;12.20;99.90;;;;;;4831226;29;20201;-90
2021/09/29 06:21:36;;;;;;;8.70;7.13;;;12.30;99.90;;;;;;4842191;29;20450;-90
2021/09/29 06:24:03;;;;;;;8.27;6.33;;;12.30;99.90;;;;;;4832252;29;20857;-90
2021/09/29 06:26:28;;;;;;;7.83;7.03;;;12.20;99.90;;;;;;4843899;29;20470;-90
2021/09/29 06:28:54;;;;;;;7.83;6.30;;;12.30;99.90;;;;;;4845631;29;20448;-89
2021/09/29 06:31:19;;;;;;;8.10;7.33;;;12.30;99.90;;;;;;4833877;29;20671;-90
2021/09/29 06:33:49;;;;;;;7.50;6.70;;;12.40;99.90;;;;;;4835155;29;20206;-90
2021/09/29 06:36:15;;;;;;;7.17;6.10;;;12.60;99.90;;;;;;4847155;29;20271;-90
2021/09/29 06:38:41;;;;;;;9.57;6.43;;;12.80;99.90;;;;;;4849285;29;20827;-91
2021/09/29 06:41:07;;;;;;;7.50;6.50;;;12.90;99.90;;;;;;4853361;29;20483;-89
2021/09/29 06:43:33;;;;;;;12.77;6.63;;;12.90;99.90;;;;;;4831875;29;20199;-89
2021/09/29 06:45:58;;;;;;;8.10;5.57;;;12.90;99.90;;;;;;4835562;29;20980;-90
2021/09/29 06:48:24;;;;;;;8.67;5.87;;;13.00;99.90;;;;;;4847437;29;20614;-90
2021/09/29 06:50:49;;;;;;;8.60;6.30;;;13.00;99.90;;;;;;4851295;29;20195;-90
2021/09/29 06:53:21;;;;;;;6.50;4.80;;;13.10;99.90;;;;;;4850273;29;20182;-90
2021/09/29 06:55:47;;;;;;;11.67;6.00;;;13.20;99.90;;;;;;4835412;29;20243;-90
2021/09/29 06:58:13;;;;;;;9.10;5.10;;;13.30;99.90;;;;;;4850443;29;20428;-89
2021/09/29 07:00:39;;;;;;;5.50;5.00;;;13.40;99.90;;;;;;4828172;29;20440;-89
2021/09/29 07:03:05;;;;;;;5.90;4.43;;;13.50;99.90;;;;;;4847979;29;20452;-89
2021/09/29 07:05:31;;;;;;;5.23;4.73;;;13.60;99.90;;;;;;4837070;29;20657;-89
2021/09/29 07:07:59;;;;;;;8.17;4.60;;;13.70;99.90;;;;;;4835084;29;20512;-89
2021/09/29 07:10:25;;;;;;;5.00;4.50;;;13.80;99.90;;;;;;4832339;29;20794;-90
2021/09/29 07:12:52;;;;;;;5.40;4.60;;;14.00;99.90;;;;;;4850146;29;20458;-90
2021/09/29 07:15:18;;;;;;;4.97;4.50;;;14.10;99.90;;;;;;4831257;29;20492;-90
2021/09/29 07:17:44;;;;;;;5.97;4.90;;;14.30;99.90;;;;;;4851848;29;20444;-90
2021/09/29 07:20:11;;;;;;;4.80;4.40;;;14.40;99.90;;;;;;4849455;29;20183;-89
2021/09/29 07:22:38;;;;;;;5.50;4.23;;;14.50;99.90;;;;;;4850663;29;20455;-89
2021/09/29 07:25:05;;;;;;;5.33;4.13;;;14.60;99.90;;;;;;4846499;29;20452;-90
2021/09/29 07:27:30;;;;;;;4.57;4.00;;;14.60;99.90;;;;;;4845716;29;20432;-90
2021/09/29 07:29:56;;;;;;;4.20;3.80;;;14.70;99.90;;;;;;4845367;29;20463;-90
2021/09/29 07:32:21;;;;;;;3.80;3.10;;;14.80;99.90;;;;;;4829711;29;20556;-90
2021/09/29 07:34:47;;;;;;;3.50;3.20;;;14.90;99.90;;;;;;4834722;29;20206;-90
2021/09/29 07:37:14;;;;;;;3.73;3.20;;;15.00;99.90;;;;;;4845402;29;20219;-90
2021/09/29 07:39:39;;;;;;;3.63;3.33;;;15.10;99.90;;;;;;4850523;29;20194;-89
2021/09/29 07:42:05;;;;;;;3.40;3.10;;;15.30;99.90;;;;;;4851905;29;20450;-90
2021/09/29 07:44:31;;;;;;;4.40;4.00;;;15.30;99.90;;;;;;4850914;29;20263;-90
2021/09/29 07:46:56;;;;;;;3.83;3.37;;;15.50;99.90;;;;;;4848322;29;20194;-90
2021/09/29 07:49:22;;;;;;;7.73;3.13;;;15.70;99.90;;;;;;4834776;29;20191;-89
2021/09/29 07:51:51;;;;;;;2.80;2.60;;;15.70;99.90;;;;;;4830261;29;20215;-90
2021/09/29 07:54:17;;;;;;;5.30;3.40;;;15.60;99.90;;;;;;4832348;29;20274;-89
2021/09/29 07:56:42;;;;;;;4.10;2.70;;;15.60;99.90;;;;;;4852378;29;20490;-90
2021/09/29 07:59:08;;;;;;;3.03;2.70;;;15.50;99.90;;;;;;4833540;29;20187;-91
2021/09/29 08:01:34;;;;;;;3.27;2.43;;;15.60;99.90;;;;;;4835228;29;20206;-91
2021/09/29 08:03:59;;;;;;;2.93;2.20;;;15.90;99.90;;;;;;4834387;29;20498;-91
2021/09/29 08:06:25;;;;;;;3.50;2.50;;;16.00;99.90;;;;;;4847825;29;20436;-90
2021/09/29 08:08:52;;;;;;;2.63;2.37;;;16.10;99.90;;;;;;4850675;29;20207;-90
2021/09/29 08:11:18;;;;;;;3.10;2.80;;;16.10;99.90;;;;;;4834059;29;20203;-90
2021/09/29 08:13:44;;;;;;;2.60;2.40;;;15.90;99.90;;;;;;4844277;29;20510;-91
2021/09/29 08:16:10;;;;;;;2.93;2.30;;;16.00;99.90;;;;;;4833011;29;20681;-91
2021/09/29 08:18:35;;;;;;;4.07;1.80;;;16.20;99.90;;;;;;4847620;29;20205;-91
2021/09/29 08:21:03;;;;;;;4.53;1.60;;;16.40;99.90;;;;;;4832402;29;20267;-89
2021/09/29 08:23:34;;;;;;;3.60;1.80;;;16.50;99.90;;;;;;4834624;29;20209;-90
2021/09/29 08:28:40;;;;;;;2.07;1.73;;;16.70;99.90;;;;;;4846970;29;20427;-90
2021/09/29 08:36:34;;;;;;;1.73;1.63;;;17.00;99.90;;;;;;4820666;29;20969;-90
2021/09/29 08:39:13;;;;;;;5.37;1.70;;;17.10;99.90;;;;;;4848298;29;20546;-90
2021/09/29 08:44:32;;;;;;;2.07;1.90;;;17.40;99.90;;;;;;4844443;29;20820;-91
2021/09/29 08:47:22;;;;;;;1.60;1.50;;;17.40;99.80;;;;;;4847889;29;20454;-90
2021/09/29 09:16:58;;;;;;;2.03;1.20;;;16.90;99.70;;;;;;4845360;29;21549;-90
2021/09/29 09:19:29;;;;;;;1.70;1.00;;;17.10;99.30;;;;;;4831693;29;20447;-93
2021/09/29 09:22:05;;;;;;;3.10;1.30;;;17.10;99.20;;;;;;4847453;29;20463;-90
2021/09/29 09:24:34;;;;;;;2.10;1.23;;;17.40;98.50;;;;;;4843728;29;20445;-90
2021/09/29 09:27:06;;;;;;;2.50;0.87;;;17.90;98.40;;;;;;4846992;29;20443;-89
2021/09/29 09:29:43;;;;;;;2.53;0.90;;;18.10;98.10;;;;;;4847152;29;21001;-89
2021/09/29 09:32:12;;;;;;;1.10;1.00;;;17.80;98.40;;;;;;4848532;29;20993;-90
2021/09/29 09:34:38;;;;;;;2.10;0.87;;;18.10;98.20;;;;;;4846489;29;20450;-90
2021/09/29 09:37:12;;;;;;;2.90;1.37;;;18.20;98.30;;;;;;4845792;29;20482;-90
2021/09/29 09:39:39;;;;;;;3.50;1.20;;;18.40;97.80;;;;;;4837234;29;20438;-90
2021/09/29 09:42:07;;;;;;;2.67;1.10;;;18.60;97.80;;;;;;4846106;29;20452;-90
2021/09/29 09:44:41;;;;;;;2.30;1.23;;;18.90;97.90;;;;;;4847961;29;20479;-90
2021/09/29 09:47:15;;;;;;;3.43;1.27;;;18.70;97.00;;;;;;4829651;29;20510;-90
2021/09/29 09:49:44;;;;;;;3.20;1.23;;;18.50;97.90;;;;;;4831290;29;20438;-90
2021/09/29 09:52:10;;;;;;;1.47;0.73;;;18.50;97.60;;;;;;4832605;29;21116;-90
2021/09/29 09:54:41;;;;;;;4.67;1.37;;;18.50;96.90;;;;;;4830426;29;20448;-90
2021/09/29 09:57:18;;;;;;;2.40;1.23;;;18.40;97.10;;;;;;4849227;29;20218;-91
2021/09/29 09:59:51;;;;;;;5.77;2.00;;;18.20;97.30;;;;;;4828311;29;20460;-91
2021/09/29 10:02:17;;;;;;;3.03;1.20;;;18.30;96.20;;;;;;4844875;29;20444;-90
2021/09/29 10:04:44;;;;;;;4.03;1.30;;;18.20;96.00;;;;;;4850409;29;20450;-90
2021/09/29 10:07:10;;;;;;;1.17;1.07;;;18.10;95.80;;;;;;4832404;29;20529;-90
2021/09/29 10:10:22;;;;;;;1.20;1.10;;;18.10;96.40;;;;;;4849070;29;20480;-90
2021/09/29 10:12:35;;;;;;;4.03;1.13;;;18.00;96.10;;;;;;4840187;29;20427;-89
2021/09/29 10:23:57;;;;;;;1.37;1.10;;;18.00;96.50;;;;;;4853153;29;20499;-90
2021/09/29 10:26:27;;;;;;;1.70;0.87;;;18.10;96.60;;;;;;4844121;29;21419;-91
2021/09/29 10:29:12;;;;;;;5.47;1.30;;;18.50;96.10;;;;;;4837305;29;20447;-90
2021/09/29 10:42:51;;;;;;;0.83;0.80;;;20.50;91.90;;;;;;4852402;29;20434;-89
2021/09/29 11:29:46;;;;;;;1.30;0.80;;;19.80;91.80;;;;;;4845898;29;20447;-90
2021/09/29 11:32:32;;;;;;;1.23;0.80;;;20.00;90.50;;;;;;4846508;29;20451;-90
2021/09/29 11:35:01;;;;;;;0.80;0.60;;;19.90;90.50;;;;;;4851024;29;20460;-90
2021/09/29 12:10:29;;;;;;;0.93;0.87;;;19.70;90.70;;;;;;4849240;29;20871;-90
2021/09/29 12:12:56;;;;;;;0.80;0.60;;;19.30;90.30;;;;;;4831135;29;20487;-90
2021/09/29 12:15:22;;;;;;;0.80;0.60;;;19.40;90.70;;;;;;4845060;29;20503;-89
2021/09/29 12:17:51;;;;;;;3.60;1.13;;;19.20;90.60;;;;;;4845820;29;20444;-91
2021/09/29 12:20:21;;;;;;;1.07;0.80;;;19.20;90.50;;;;;;4833926;29;20443;-90
2021/09/29 12:22:51;;;;;;;2.20;0.83;;;19.20;90.60;;;;;;4833411;29;20462;-90
2021/09/29 12:25:55;;;;;;;1.40;0.70;;;19.20;90.90;;;;;;4832920;29;20428;-91
2021/09/29 12:36:13;;;;;;;1.90;0.90;;;19.30;91.90;;;;;;4848188;29;20482;-89
2021/09/29 12:38:41;;;;;;;0.60;0.60;;;19.80;91.00;;;;;;4849716;29;20814;-90
2021/09/29 12:41:07;;;;;;;0.93;0.60;;;20.60;90.00;;;;;;4853498;29;20541;-90
2021/09/29 12:43:32;;;;;;;1.33;0.50;;;20.90;88.30;;;;;;4851549;29;20799;-90
2021/09/29 12:45:58;;;;;;;1.40;0.70;;;20.50;88.60;;;;;;4849701;29;20250;-89
2021/09/29 12:48:28;;;;;;;0.70;0.70;;;20.10;88.80;;;;;;4833641;29;20725;-89
2021/09/29 12:50:58;;;;;;;3.10;0.87;;;19.70;90.10;;;;;;4850022;29;20205;-89
2021/09/29 12:53:34;;;;;;;2.63;0.53;;;19.50;90.20;;;;;;4849150;29;20536;-90
2021/09/29 12:56:03;;;;;;;1.97;0.70;;;19.40;90.50;;;;;;4850882;29;20470;-91
2021/09/29 12:58:30;;;;;;;1.57;0.63;;;19.50;90.70;;;;;;4831810;29;20452;-89
2021/09/29 13:00:57;;;;;;;2.17;0.60;;;19.70;90.50;;;;;;4851473;29;20435;-90
2021/09/29 13:03:23;;;;;;;1.93;0.60;;;19.70;90.40;;;;;;4829030;29;20458;-89
2021/09/29 13:05:49;;;;;;;1.33;0.73;;;19.50;90.40;;;;;;4849550;29;20471;-90
2021/09/29 13:08:16;;;;;;;2.43;1.10;;;19.50;90.70;;;;;;4848292;29;20432;-89
2021/09/29 13:10:42;;;;;;;2.13;0.60;;;19.90;90.80;;;;;;4849351;29;20202;-89
2021/09/29 13:13:10;;;;;;;1.70;0.70;;;20.40;90.20;;;;;;4832951;29;20451;-89
2021/09/29 13:15:40;;;;;;;4.90;0.80;;;20.90;89.10;;;;;;4847342;29;20467;-89
2021/09/29 13:18:10;;;;;;;1.03;0.73;;;20.70;89.30;;;;;;4842928;29;20448;-90
2021/09/29 13:20:36;;;;;;;1.97;0.90;;;20.50;88.10;;;;;;4831823;29;20802;-90
2021/09/29 13:23:09;;;;;;;3.00;0.70;;;20.50;89.00;;;;;;4829505;29;21017;-90
2021/09/29 13:25:58;;;;;;;1.67;0.80;;;19.90;89.40;;;;;;4833654;29;20501;-90
2021/09/29 13:36:41;;;;;;;1.70;0.70;;;18.60;92.60;;;;;;4847218;29;20483;-91
2021/09/29 13:39:15;;;;;;;2.00;1.30;;;18.20;94.20;;;;;;4844278;29;20448;-90
2021/09/29 13:41:42;;;;;;;3.60;0.60;;;17.80;95.50;;;;;;4846114;29;20481;-89
2021/09/29 13:44:10;;;;;;;1.90;0.67;;;17.70;96.20;;;;;;4845684;29;20534;-89
2021/09/29 13:46:36;;;;;;;1.43;0.73;;;17.40;97.30;;;;;;4849668;29;20447;-92
2021/09/29 13:49:05;;;;;;;2.83;1.50;;;17.10;97.80;;;;;;4833552;29;20439;-90
2021/09/29 13:51:32;;;;;;;1.90;0.80;;;17.00;98.20;;;;;;4832262;29;21048;-90
2021/09/29 13:54:04;;;;;;;2.50;0.80;;;17.20;98.10;;;;;;4831071;29;20523;-91
2021/09/29 13:56:39;;;;;;;2.20;1.03;;;17.60;98.30;;;;;;4830897;29;20483;-90
2021/09/29 13:59:20;;;;;;;1.63;0.80;;;17.40;98.80;;;;;;4848223;29;20880;-90
2021/09/29 14:32:04;;;;;;;2.00;0.87;;;15.40;99.90;;;;;;4842885;29;20500;-90
2021/09/29 14:34:14;;;;;;;3.40;1.40;;;15.40;99.90;;;;;;4843630;29;20666;-90
2021/09/29 14:36:41;;;;;;;1.90;1.37;;;15.40;99.90;;;;;;4832839;29;20485;-90
2021/09/29 14:39:06;;;;;;;2.30;1.07;;;15.40;99.90;;;;;;4830374;29;20515;-89
2021/09/29 14:41:32;;;;;;;2.00;1.33;;;15.40;99.90;;;;;;4830345;29;20506;-91
2021/09/29 14:43:58;;;;;;;1.93;0.80;;;15.30;99.90;;;;;;4831818;29;20203;-90
2021/09/29 14:46:24;;;;;;;1.17;0.80;;;15.20;99.90;;;;;;4847952;29;20191;-91
2021/09/29 14:48:50;;;;;;;0.80;0.33;;;14.50;99.90;;;;;;4832657;29;20641;-90
2021/09/29 14:51:16;;;;;;;0.63;0.50;;;13.90;99.90;;;;;;4832964;29;20455;-90
2021/09/29 14:53:42;;;;;;;1.13;0.50;;;13.70;99.90;;;;;;4834504;29;20190;-89
2021/09/29 14:56:09;;;;;;;1.33;0.50;;;13.50;99.90;;;;;;4835417;29;20525;-89
2021/09/29 14:58:36;;;;;;;0.60;0.50;;;13.60;99.90;;;;;;4848658;29;20194;-90
2021/09/29 15:01:03;;;;;;;0.90;0.40;;;13.60;99.90;;;;;;4830530;29;20973;-90
2021/09/29 15:03:28;;;;;;;0.30;0.30;;;13.50;99.90;;;;;;4848730;29;20562;-90
2021/09/29 15:05:54;;;;;;;0.50;0.50;;;13.30;99.90;;;;;;4848593;29;20443;-89
2021/09/29 15:08:21;;;;;;;1.00;0.50;;;13.30;99.90;;;;;;4831479;29;20202;-89
2021/09/29 15:10:47;;;;;;;1.33;0.43;;;13.30;99.90;;;;;;4852202;29;20435;-90
2021/09/29 15:13:15;;;;;;;0.60;0.43;;;13.20;99.90;;;;;;4846230;29;20449;-89
2021/09/29 15:48:24;;;;;;;0.93;0.60;;;13.80;99.90;;;;;;4848919;29;20450;-89
2021/09/29 15:55:46;;;;;;;1.90;1.40;;;13.60;99.90;;;;;;4850071;29;20800;-89
2021/09/29 16:03:45;;;;;;;1.07;0.97;;;13.60;99.90;;;;;;4847481;29;20467;-90
2021/09/29 16:19:27;;;;;;;1.03;0.70;;;13.80;99.90;;;;;;4849659;29;20447;-90
2021/09/29 16:35:11;;;;;;;1.50;1.40;;;13.60;99.90;;;;;;4846325;29;20504;-90
2021/09/29 16:37:37;;;;;;;2.33;2.10;;;13.60;99.90;;;;;;4833743;29;20471;-90
2021/09/29 16:40:04;;;;;;;2.93;2.37;;;13.60;99.90;;;;;;4845200;29;20455;-90
2021/09/29 16:42:29;;;;;;;1.43;1.27;;;13.60;99.90;;;;;;4832604;29;20210;-90
2021/09/29 16:45:03;;;;;;;1.57;1.20;;;13.50;99.90;;;;;;4831003;29;20474;-90
2021/09/29 16:47:29;;;;;;;0.60;0.60;;;13.60;99.90;;;;;;4843962;29;20495;-90
2021/09/29 16:49:56;;;;;;;1.13;0.80;;;13.50;99.90;;;;;;4829711;29;20474;-90
2021/09/29 16:54:47;;;;;;;1.13;0.77;;;13.50;99.90;;;;;;4851297;29;20458;-90
2021/09/29 16:57:20;;;;;;;0.40;0.40;;;13.50;99.90;;;;;;4848140;29;20255;-91
2021/09/29 16:59:55;;;;;;;0.70;0.70;;;13.50;99.90;;;;;;4828225;29;20207;-90
2021/09/29 17:02:20;;;;;;;1.13;0.63;;;13.40;99.90;;;;;;4847517;29;20941;-90